Time;durP1;ratioP1;P1;durP2;ratioP2;P2;SDS_P1;SDS_P2;PMS_P1;PMS_P2;Temp;Humidity;BMP_temperature;BMP_pressure;BME280_temperature;BME280_humidity;BME280_pressure;Samples;Min_cycle;Max_cycle;Signal;HPM_P1;HPM_P2
2023/02/23 00:02:03;;;;;;;;;;;11.20;99.90;;;;;;5936412;24;19913;-84
2023/02/23 00:05:02;;;;;;;;;;;11.20;99.90;;;;;;5935696;24;19907;-83
2023/02/23 00:08:05;;;;;;;;;;;11.20;99.90;;;;;;5935358;24;19907;-84
2023/02/23 00:10:59;;;;;;;;;;;;;;;;;;;;;
2023/02/23 00:13:25;;;;;;;;;;;11.10;99.90;;;;;;5935042;24;19942;-85
2023/02/23 00:19:19;;;;;;;;;;;11.10;99.90;;;;;;6085909;23;19966;-84
2023/02/23 00:22:25;;;;;;;;;;;11.10;99.90;;;;;;6078410;23;19906;-84
2023/02/23 00:28:26;;;;;;;;;;;11.10;99.90;;;;;;6026844;23;20319;-84
2023/02/23 00:43:57;;;;;;;;;;;11.10;99.90;;;;;;6134714;23;19905;-84
2023/02/23 00:56:22;;;;;;;;;;;11.20;99.90;;;;;;6048213;23;19913;-84
2023/02/23 01:02:45;;;;;;;;;;;11.20;99.90;;;;;;6091189;23;19929;-84
2023/02/23 01:05:23;;;;;;;;;;;;;;;;;;;;;
2023/02/23 01:11:58;;;;;;;;;;;;;;;;;;;;;
2023/02/23 01:14:37;;;;;;;;;;;11.20;99.90;;;;;;6139822;23;19905;-85
2023/02/23 01:17:22;;;;;;;;;;;;;;;;;;;;;
2023/02/23 01:26:23;;;;;;;;;;;11.10;99.90;;;;;;6133615;23;19923;-84
2023/02/23 01:29:37;;;;;;;;;;;;;;;;;;;;;
2023/02/23 01:32:32;;;;;;;;;;;11.00;99.90;;;;;;6133602;23;19928;-84
2023/02/23 01:48:06;;;;;;;;;;;;;;;;;;;;;
2023/02/23 01:51:07;;;;;;;;;;;11.00;99.90;;;;;;6045646;23;19944;-84
2023/02/23 08:08:06;;;;;;;;;;;;;;;;;;;;;
2023/02/23 09:17:57;;;;;;;;;;;11.00;99.90;;;;;;6120831;22;19928;-84
2023/02/23 09:24:02;;;;;;;;;;;11.00;99.90;;;;;;6235359;23;19904;-84
2023/02/23 09:26:38;;;;;;;;;;;10.90;99.90;;;;;;6227500;23;20331;-84
2023/02/23 09:29:12;;;;;;;;;;;10.90;99.90;;;;;;6230946;23;19904;-84
2023/02/23 09:31:51;;;;;;;;;;;10.90;99.90;;;;;;6230157;23;19943;-85
2023/02/23 09:37:16;;;;;;;;;;;11.00;99.90;;;;;;6257489;23;19912;-84
2023/02/23 09:39:47;;;;;;;;;;;11.00;99.90;;;;;;6255752;23;19904;-84
2023/02/23 09:42:31;;;;;;;;;;;11.00;99.90;;;;;;6230097;23;19903;-84
2023/02/23 09:48:24;;;;;;;;;;;11.20;99.90;;;;;;6256858;23;19904;-84
2023/02/23 09:50:54;;;;;;;;;;;11.20;99.90;;;;;;6256691;23;19904;-84
2023/02/23 09:53:41;;;;;;;;;;;11.20;99.90;;;;;;6257493;23;19904;-84
2023/02/23 09:56:32;;;;;;;;;;;11.20;99.90;;;;;;6228197;23;19912;-84
2023/02/23 09:59:19;;;;;;;;;;;11.10;99.90;;;;;;6211664;23;19918;-84
2023/02/23 10:01:50;;;;;;;;;;;11.00;99.90;;;;;;6227803;23;19904;-84
2023/02/23 10:04:26;;;;;;;;;;;10.90;99.90;;;;;;6230472;23;19939;-84
2023/02/23 10:07:24;;;;;;;;;;;;;;;;;;;;;
2023/02/23 10:10:11;;;;;;;;;;;11.00;99.90;;;;;;6258009;23;19935;-83
2023/02/23 10:12:52;;;;;;;;;;;10.90;99.90;;;;;;6230022;23;19931;-84
2023/02/23 10:15:39;;;;;;;;;;;10.90;99.90;;;;;;6229719;23;19910;-83
2023/02/23 10:18:26;;;;;;;;;;;10.90;99.90;;;;;;6228602;23;19918;-83
2023/02/23 10:21:12;;;;;;;;;;;10.90;99.90;;;;;;6229830;23;19934;-84
2023/02/23 10:24:38;;;;;;;;;;;10.90;99.90;;;;;;6256883;23;19974;-84
2023/02/23 10:30:06;;;;;;;;;;;;;;;;;;;;;
2023/02/23 10:36:18;;;;;;;;;;;11.10;99.90;;;;;;6255606;23;19908;-83
2023/02/23 10:38:48;;;;;;;;;;;11.10;99.90;;;;;;6253583;22;20343;-84
2023/02/23 10:41:21;;;;;;;;;;;11.00;99.90;;;;;;6228185;23;20312;-84
2023/02/23 11:05:56;;;;;;;;;;;10.90;99.90;;;;;;6026289;23;20349;-88
2023/02/23 11:08:29;;;;;;;;;;;11.00;99.90;;;;;;6008791;23;19925;-89
2023/02/23 11:11:00;;;;;;;;;;;10.90;99.90;;;;;;6051472;23;19928;-84
2023/02/23 11:13:44;;;;;;;;;;;11.00;99.90;;;;;;6126050;23;19909;-84
2023/02/23 11:16:17;;;;;;;;;;;10.90;99.90;;;;;;6125576;23;19916;-84
2023/02/23 11:18:53;;;;;;;;;;;10.90;99.90;;;;;;6128521;23;20343;-83
2023/02/23 11:21:50;;;;;;;;;;;10.90;99.90;;;;;;6127129;23;19953;-83
2023/02/23 11:27:39;;;;;;;;;;;10.70;99.90;;;;;;6129008;23;19912;-83
2023/02/23 11:30:10;;;;;;;;;;;10.60;99.90;;;;;;6127055;23;19905;-83
2023/02/23 11:35:42;;;;;;;;;;;10.50;99.90;;;;;;6128139;23;19905;-83
2023/02/23 11:38:33;;;;;;;;;;;10.50;99.90;;;;;;6127225;23;19920;-84
2023/02/23 11:43:37;;;;;;;;;;;10.60;99.90;;;;;;6251301;22;19923;-84
2023/02/23 11:46:07;;;;;;;;;;;10.60;99.90;;;;;;6249843;23;19910;-84
2023/02/23 11:48:48;;;;;;;;;;;10.60;99.90;;;;;;6224028;23;19908;-84
2023/02/23 11:54:28;;;;;;;;;;;10.70;99.90;;;;;;6251456;23;19903;-84
2023/02/23 11:56:57;;;;;;;;;;;10.70;99.90;;;;;;6223050;23;19908;-83
2023/02/23 11:59:42;;;;;;;;;;;10.70;99.90;;;;;;6249128;23;19911;-83
2023/02/23 12:02:33;;;;;;;;;;;10.80;99.90;;;;;;6221699;23;19904;-84
2023/02/23 12:05:31;;;;;;;;;;;10.80;99.90;;;;;;6207900;23;19903;-83
2023/02/23 12:08:17;;;;;;;;;;;10.80;99.90;;;;;;6182209;23;19904;-83
2023/02/23 12:11:00;;;;;;;;;;;10.70;99.90;;;;;;6248976;22;19914;-83
2023/02/23 12:13:36;;;;;;;;;;;10.60;99.90;;;;;;6222170;23;19907;-85
2023/02/23 12:16:22;;;;;;;;;;;10.70;99.90;;;;;;6221430;23;19994;-83
2023/02/23 12:19:21;;;;;;;;;;;10.50;99.90;;;;;;6219133;23;19930;-83
2023/02/23 12:22:06;;;;;;;;;;;10.50;99.90;;;;;;6221225;23;19911;-84
2023/02/23 12:24:45;;;;;;;;;;;10.60;99.90;;;;;;6220206;23;19946;-83
2023/02/23 12:27:27;;;;;;;;;;;10.70;99.90;;;;;;6220658;23;19910;-84
2023/02/23 12:30:05;;;;;;;;;;;10.70;99.90;;;;;;6221696;23;19949;-84
2023/02/23 12:32:39;;;;;;;;;;;10.70;99.90;;;;;;6221738;23;19907;-84
2023/02/23 12:35:29;;;;;;;;;;;10.70;99.90;;;;;;6221463;23;19911;-83
2023/02/23 12:38:15;;;;;;;;;;;10.80;99.90;;;;;;6221505;23;19908;-84
2023/02/23 12:40:43;;;;;;;;;;;10.80;99.90;;;;;;6247807;22;19903;-84
2023/02/23 12:43:48;;;;;;;;;;;10.80;99.90;;;;;;6245669;22;19915;-84
2023/02/23 12:46:31;;;;;;;;;;;10.80;99.90;;;;;;6190072;23;19931;-83
2023/02/23 12:49:06;;;;;;;;;;;10.80;99.90;;;;;;6247928;22;19926;-84
2023/02/23 12:51:34;;;;;;;;;;;10.70;99.90;;;;;;6278782;22;20022;-83
2023/02/23 12:57:12;;;;;;;;;;;10.70;99.90;;;;;;6279146;22;19953;-84
2023/02/23 12:59:45;;;;;;;;;;;10.80;99.90;;;;;;6250504;22;20319;-84
2023/02/23 13:02:28;;;;;;;;;;;10.80;99.90;;;;;;6250573;22;20316;-84
2023/02/23 13:04:56;;;;;;;;;;;10.60;99.90;;;;;;6251192;22;20319;-82
2023/02/23 13:07:33;;;;;;;;;;;10.60;99.90;;;;;;6251296;22;19908;-83
2023/02/23 13:10:20;;;;;;;;;;;10.60;99.90;;;;;;6251432;22;19907;-83
2023/02/23 13:22:26;;;;;;;;;;;10.60;99.90;;;;;;6266170;22;19910;-84
2023/02/23 13:41:15;;;;;;;;;;;11.10;99.90;;;;;;6094608;23;20364;-82
2023/02/23 14:04:58;;;;;;;;;;;11.80;99.90;;;;;;6194582;23;19947;-80
2023/02/23 14:08:05;;;;;;;;;;;11.80;99.90;;;;;;6183936;23;19908;-80
2023/02/23 14:14:31;;;;;;;;;;;;;;;;;;;;;
2023/02/23 14:25:59;;;;;;;;;;;12.10;99.90;;;;;;6283547;22;19919;-81
2023/02/23 14:28:43;;;;;;;;;;;12.10;99.90;;;;;;6259491;22;19903;-84
2023/02/23 14:31:43;;;;;;;;;;;12.20;99.90;;;;;;6275114;22;19911;-83
2023/02/23 14:46:45;;;;;;;;;;;12.00;99.90;;;;;;6233644;22;19926;-80
2023/02/23 14:58:39;;;;;;;;;;;;;;;;;;;;;
2023/02/23 15:01:20;;;;;;;;;;;11.40;99.90;;;;;;6276366;22;19987;-82
2023/02/23 15:19:55;;;;;;;;;;;;;;;;;;;;;
2023/02/23 15:28:44;;;;;;;;;;;11.40;99.90;;;;;;6277784;22;19910;-81
2023/02/23 15:31:49;;;;;;;;;;;11.40;99.90;;;;;;6249183;22;19915;-83
2023/02/23 15:38:01;;;;;;;;;;;11.30;99.90;;;;;;6209171;22;19911;-82
2023/02/23 15:53:21;;;;;;;;;;;11.10;99.90;;;;;;6276712;22;19906;-82
2023/02/23 15:55:53;;;;;;;;;;;11.10;99.90;;;;;;6276030;22;20327;-81
2023/02/23 16:05:19;;;;;;;;;;;11.20;99.90;;;;;;6153224;23;20288;-82
2023/02/23 16:11:18;;;;;;;;;;;11.30;99.90;;;;;;6264735;22;19982;-82
2023/02/23 16:17:14;;;;;;;;;;;11.30;99.90;;;;;;6151628;23;19909;-81
2023/02/23 16:26:24;;;;;;;;;;;11.10;99.90;;;;;;6123915;23;20412;-82
2023/02/23 16:29:25;;;;;;;;;;;11.10;99.90;;;;;;6097698;23;19909;-82
2023/02/23 16:35:04;;;;;;;;;;;11.00;99.90;;;;;;6212041;23;20014;-84
2023/02/23 16:37:56;;;;;;;;;;;11.00;99.90;;;;;;6187140;23;19958;-83
2023/02/23 16:40:44;;;;;;;;;;;11.00;99.90;;;;;;6180729;22;20346;-82
2023/02/23 16:43:34;;;;;;;;;;;11.00;99.90;;;;;;6122422;23;19913;-82
2023/02/23 16:46:36;;;;;;;;;;;10.90;99.90;;;;;;6122244;23;19913;-83
2023/02/23 16:55:52;;;;;;;;;;;;;;;;;;;;;
2023/02/23 16:58:42;;;;;;;;;;;10.90;99.90;;;;;;6124153;23;20003;-83
2023/02/23 17:01:29;;;;;;;;;;;10.90;99.90;;;;;;6118812;23;19912;-82
2023/02/23 17:07:38;;;;;;;;;;;10.90;99.90;;;;;;6064480;23;19906;-82
2023/02/23 17:10:06;;;;;;;;;;;10.90;99.90;;;;;;6063365;23;20247;-81
2023/02/23 17:19:45;;;;;;;;;;;;;;;;;;;;;
2023/02/23 17:22:32;;;;;;;;;;;10.80;99.90;;;;;;6089379;22;19999;-82
2023/02/23 17:25:30;;;;;;;;;;;10.80;99.90;;;;;;6249058;22;19972;-82
2023/02/23 17:28:25;;;;;;;;;;;10.80;99.90;;;;;;6177538;23;19987;-81
2023/02/23 17:34:17;;;;;;;;;;;10.80;99.90;;;;;;6156442;22;20322;-82
2023/02/23 18:08:25;;;;;;;;;;;10.70;99.90;;;;;;6118485;23;20056;-85
2023/02/23 18:10:52;;;;;;;;;;;10.70;99.90;;;;;;6249640;22;19905;-87
2023/02/23 18:13:17;;;;;;;;;;;10.60;99.90;;;;;;6250752;22;19913;-85
2023/02/23 18:15:47;;;;;;;;;;;10.50;99.90;;;;;;6249800;22;20240;-83
2023/02/23 18:18:12;;;;;;;;;;;10.50;99.90;;;;;;6223156;23;19935;-83
2023/02/23 18:20:38;;;;;;;;;;;10.50;99.90;;;;;;6223225;23;20332;-83
2023/02/23 18:23:03;;;;;;;;;;;10.60;99.90;;;;;;6223223;23;19905;-83
2023/02/23 18:25:31;;;;;;;;;;;10.60;99.90;;;;;;6248967;22;19916;-87
2023/02/23 18:27:57;;;;;;;;;;;10.60;99.90;;;;;;6223095;23;20324;-86
2023/02/23 18:30:37;;;;;;;;;;;10.70;99.90;;;;;;6222985;23;19911;-87
2023/02/23 18:33:03;;;;;;;;;;;10.50;99.90;;;;;;6222836;23;19912;-87
2023/02/23 18:35:44;;;;;;;;;;;10.40;99.90;;;;;;6223078;23;20250;-87
2023/02/23 18:38:12;;;;;;;;;;;10.40;99.90;;;;;;6223396;23;19909;-86
2023/02/23 18:40:38;;;;;;;;;;;10.30;99.90;;;;;;6223570;23;19905;-86
2023/02/23 18:43:04;;;;;;;;;;;10.40;99.90;;;;;;6223246;23;19966;-87
2023/02/23 18:45:29;;;;;;;;;;;10.40;99.90;;;;;;6222890;23;19905;-87
2023/02/23 18:47:55;;;;;;;;;;;10.40;99.90;;;;;;6223298;23;19955;-86
2023/02/23 18:50:21;;;;;;;;;;;10.30;99.90;;;;;;6223258;23;19920;-86
2023/02/23 18:53:47;;;;;;;;;;;10.30;99.90;;;;;;6222430;23;19913;-86
2023/02/23 18:55:56;;;;;;;;;;;10.30;99.90;;;;;;6152316;23;19911;-87
2023/02/23 18:58:21;;;;;;;;;;;10.30;99.90;;;;;;6212613;23;20232;-86
2023/02/23 19:00:47;;;;;;;;;;;10.30;99.90;;;;;;6222764;23;19905;-87
2023/02/23 19:03:15;;;;;;;;;;;10.30;99.90;;;;;;6222739;23;20283;-87
2023/02/23 19:05:48;;;;;;;;;;;10.30;99.90;;;;;;6222737;23;19905;-86
2023/02/23 19:08:15;;;;;;;;;;;10.30;99.90;;;;;;6139808;23;1872130;-87
2023/02/23 19:10:42;;;;;;;;;;;10.40;99.90;;;;;;6224118;23;20354;-86
2023/02/23 19:13:08;;;;;;;;;;;10.30;99.90;;;;;;6224304;23;20336;-86
2023/02/23 19:15:36;;;;;;;;;;;10.30;99.90;;;;;;6224482;23;19906;-86
2023/02/23 19:18:01;;;;;;;;;;;10.30;99.90;;;;;;6224237;23;19941;-86
2023/02/23 19:20:34;;;;;;;;;;;10.20;99.90;;;;;;6224132;23;19959;-86
2023/02/23 19:23:03;;;;;;;;;;;10.10;99.90;;;;;;6223979;23;20410;-86
2023/02/23 19:25:29;;;;;;;;;;;10.00;99.90;;;;;;6224460;23;20321;-87
2023/02/23 19:27:55;;;;;;;;;;;10.10;99.90;;;;;;6223980;23;19950;-86
2023/02/23 19:30:21;;;;;;;;;;;10.00;99.90;;;;;;6223649;23;19905;-88
2023/02/23 19:32:46;;;;;;;;;;;9.90;99.90;;;;;;6125301;23;19912;-86
2023/02/23 19:35:13;;;;;;;;;;;9.90;99.90;;;;;;6223548;23;19909;-89
2023/02/23 19:37:49;;;;;;;;;;;9.90;99.90;;;;;;6223314;23;19913;-84
2023/02/23 19:40:18;;;;;;;;;;;9.90;99.90;;;;;;6223925;23;19986;-84
2023/02/23 19:42:44;;;;;;;;;;;10.00;99.90;;;;;;6225229;23;19905;-85
2023/02/23 19:45:13;;;;;;;;;;;10.00;99.90;;;;;;6227528;23;19905;-85
2023/02/23 19:47:39;;;;;;;;;;;10.00;99.90;;;;;;6125367;23;19984;-85
2023/02/23 19:50:08;;;;;;;;;;;10.00;99.90;;;;;;6122525;23;19964;-86
2023/02/23 19:52:34;;;;;;;;;;;10.00;99.90;;;;;;6223804;23;20344;-85
2023/02/23 19:55:00;;;;;;;;;;;10.00;99.90;;;;;;6223000;23;19905;-86
2023/02/23 19:57:27;;;;;;;;;;;10.00;99.90;;;;;;6123550;23;20283;-85
2023/02/23 19:59:55;;;;;;;;;;;10.00;99.90;;;;;;6125207;23;19905;-85
2023/02/23 20:02:20;;;;;;;;;;;9.90;99.90;;;;;;6227031;23;19905;-85
2023/02/23 20:04:47;;;;;;;;;;;9.90;99.90;;;;;;6253375;22;19905;-85
2023/02/23 20:07:13;;;;;;;;;;;9.90;99.90;;;;;;6224022;23;19912;-85
2023/02/23 20:09:38;;;;;;;;;;;10.00;99.90;;;;;;6121732;23;19955;-85
2023/02/23 20:12:04;;;;;;;;;;;10.00;99.90;;;;;;6120692;23;19951;-86
2023/02/23 20:14:31;;;;;;;;;;;9.90;99.90;;;;;;6224272;23;19909;-85
2023/02/23 20:16:57;;;;;;;;;;;10.00;99.90;;;;;;6250652;22;19909;-85
2023/02/23 20:19:23;;;;;;;;;;;10.00;99.90;;;;;;6122000;23;20026;-85
2023/02/23 20:21:49;;;;;;;;;;;9.90;99.90;;;;;;6121114;23;19909;-85
2023/02/23 20:24:15;;;;;;;;;;;9.80;99.90;;;;;;6249671;22;19905;-84
2023/02/23 20:26:41;;;;;;;;;;;9.90;99.90;;;;;;6225204;23;19936;-85
2023/02/23 20:29:10;;;;;;;;;;;9.90;99.90;;;;;;6223073;23;19905;-86
2023/02/23 20:31:37;;;;;;;;;;;10.00;99.90;;;;;;6223048;23;20455;-85
2023/02/23 20:34:05;;;;;;;;;;;10.10;99.90;;;;;;6223076;23;19905;-85
2023/02/23 20:36:31;;;;;;;;;;;10.10;99.90;;;;;;6222819;23;19909;-85
2023/02/23 20:38:56;;;;;;;;;;;10.10;99.90;;;;;;6248548;22;19905;-85
2023/02/23 20:41:22;;;;;;;;;;;10.10;99.90;;;;;;6222755;23;19993;-85
2023/02/23 20:43:47;;;;;;;;;;;10.10;99.90;;;;;;6122255;23;19912;-86
2023/02/23 20:46:14;;;;;;;;;;;10.10;99.90;;;;;;6121094;23;19960;-85
2023/02/23 20:48:40;;;;;;;;;;;10.10;99.90;;;;;;6222441;23;19905;-86
2023/02/23 20:51:07;;;;;;;;;;;10.10;99.90;;;;;;6224616;23;19980;-85
2023/02/23 20:53:33;;;;;;;;;;;10.10;99.90;;;;;;6222774;23;19913;-85
2023/02/23 20:55:58;;;;;;;;;;;10.10;99.90;;;;;;6122301;23;20382;-85
2023/02/23 20:58:24;;;;;;;;;;;10.00;99.90;;;;;;6223060;23;19909;-85
2023/02/23 21:00:55;;;;;;;;;;;10.10;99.90;;;;;;6248629;22;19905;-85
2023/02/23 21:03:21;;;;;;;;;;;10.10;99.90;;;;;;6222847;23;19905;-85
2023/02/23 21:05:47;;;;;;;;;;;10.10;99.90;;;;;;6223044;23;19954;-85
2023/02/23 21:08:13;;;;;;;;;;;10.10;99.90;;;;;;6121412;23;19998;-85
2023/02/23 21:10:39;;;;;;;;;;;10.00;99.90;;;;;;6121336;23;19979;-85
2023/02/23 21:13:05;;;;;;;;;;;10.00;99.90;;;;;;6222217;23;19905;-86
2023/02/23 21:15:30;;;;;;;;;;;10.00;99.90;;;;;;6223126;23;20244;-86
2023/02/23 21:17:56;;;;;;;;;;;10.00;99.90;;;;;;6121177;23;19913;-85
2023/02/23 21:20:22;;;;;;;;;;;9.90;99.90;;;;;;6249429;22;20283;-85
2023/02/23 21:22:48;;;;;;;;;;;9.90;99.90;;;;;;6222816;23;19984;-85
2023/02/23 21:25:14;;;;;;;;;;;9.90;99.90;;;;;;6225052;23;19909;-85
2023/02/23 21:27:39;;;;;;;;;;;9.90;99.90;;;;;;6224561;23;19905;-86
2023/02/23 21:30:05;;;;;;;;;;;9.90;99.90;;;;;;6225058;23;19912;-85
2023/02/23 21:32:33;;;;;;;;;;;9.90;99.90;;;;;;6123279;23;19965;-85
2023/02/23 21:34:59;;;;;;;;;;;9.90;99.90;;;;;;6225870;23;19909;-85
2023/02/23 21:37:25;;;;;;;;;;;9.90;99.90;;;;;;6224983;23;19909;-85
2023/02/23 21:39:50;;;;;;;;;;;9.90;99.90;;;;;;6122746;23;19932;-85
2023/02/23 21:42:19;;;;;;;;;;;9.90;99.90;;;;;;6123127;23;19905;-85
2023/02/23 21:44:45;;;;;;;;;;;9.90;99.90;;;;;;6123323;23;19905;-86
2023/02/23 21:47:12;;;;;;;;;;;9.90;99.90;;;;;;6122714;23;20213;-86
2023/02/23 21:49:39;;;;;;;;;;;9.90;99.90;;;;;;6227073;23;19931;-85
2023/02/23 21:52:05;;;;;;;;;;;9.90;99.90;;;;;;6252300;22;19983;-85
2023/02/23 21:54:30;;;;;;;;;;;9.90;99.90;;;;;;6224257;23;19932;-85
2023/02/23 21:56:55;;;;;;;;;;;9.90;99.90;;;;;;6121932;23;19909;-85
2023/02/23 21:59:21;;;;;;;;;;;9.90;99.90;;;;;;6122151;23;19905;-85
2023/02/23 22:01:46;;;;;;;;;;;9.90;99.90;;;;;;6224387;23;19980;-85
2023/02/23 22:04:14;;;;;;;;;;;9.90;99.90;;;;;;6225081;23;19905;-86
2023/02/23 22:06:41;;;;;;;;;;;9.90;99.90;;;;;;6121835;23;20289;-85
2023/02/23 22:09:09;;;;;;;;;;;9.90;99.90;;;;;;6223872;23;19909;-86
2023/02/23 22:11:35;;;;;;;;;;;9.90;99.90;;;;;;6122706;23;19909;-85
2023/02/23 22:14:00;;;;;;;;;;;9.90;99.90;;;;;;6225582;23;19951;-85
2023/02/23 22:16:28;;;;;;;;;;;9.80;99.90;;;;;;6250125;22;20279;-85
2023/02/23 22:18:53;;;;;;;;;;;9.80;99.90;;;;;;6224557;23;19928;-85
2023/02/23 22:21:20;;;;;;;;;;;9.80;99.90;;;;;;6121458;23;19905;-85
2023/02/23 22:23:46;;;;;;;;;;;9.80;99.90;;;;;;6224600;23;19905;-85
2023/02/23 22:26:12;;;;;;;;;;;9.90;99.90;;;;;;6249721;22;19905;-85
2023/02/23 22:28:38;;;;;;;;;;;9.90;99.90;;;;;;6224109;23;19905;-86
2023/02/23 22:31:06;;;;;;;;;;;9.90;99.90;;;;;;6223552;23;20279;-85
2023/02/23 22:33:33;;;;;;;;;;;9.80;99.90;;;;;;6224079;23;19937;-85
2023/02/23 22:36:02;;;;;;;;;;;9.90;99.90;;;;;;6223725;23;20007;-85
2023/02/23 22:38:29;;;;;;;;;;;9.90;99.90;;;;;;6223969;23;19936;-85
2023/02/23 22:40:55;;;;;;;;;;;9.90;99.90;;;;;;6122095;23;19906;-85
2023/02/23 22:43:20;;;;;;;;;;;9.90;99.90;;;;;;6224214;23;19911;-85
2023/02/23 22:45:46;;;;;;;;;;;9.90;99.90;;;;;;6121714;23;19909;-86
2023/02/23 22:48:13;;;;;;;;;;;9.90;99.90;;;;;;6224084;23;19906;-85
2023/02/23 22:50:40;;;;;;;;;;;9.90;99.90;;;;;;6121832;23;19915;-85
2023/02/23 22:53:06;;;;;;;;;;;9.90;99.90;;;;;;6223472;23;20240;-85
2023/02/23 22:55:33;;;;;;;;;;;10.00;99.90;;;;;;6121790;23;19909;-85
2023/02/23 22:57:59;;;;;;;;;;;9.90;99.90;;;;;;6121884;23;19913;-85
2023/02/23 23:00:26;;;;;;;;;;;9.90;99.90;;;;;;6228735;23;19919;-85
2023/02/23 23:02:52;;;;;;;;;;;9.70;99.90;;;;;;6227432;23;19950;-86
2023/02/23 23:05:17;;;;;;;;;;;9.70;99.90;;;;;;6223694;23;19984;-86
2023/02/23 23:07:45;;;;;;;;;;;9.50;99.90;;;;;;6223596;23;19920;-85
2023/02/23 23:10:11;;;;;;;;;;;9.50;99.90;;;;;;6223398;23;19911;-85
2023/02/23 23:12:38;;;;;;;;;;;9.40;99.90;;;;;;6224259;23;19905;-85
2023/02/23 23:15:06;;;;;;;;;;;9.50;99.90;;;;;;6251460;22;19955;-85
2023/02/23 23:17:31;;;;;;;;;;;9.40;99.90;;;;;;6123967;23;20435;-86
2023/02/23 23:19:58;;;;;;;;;;;9.40;99.90;;;;;;6123013;23;19905;-85
2023/02/23 23:22:25;;;;;;;;;;;9.30;99.90;;;;;;6121873;23;19904;-85
2023/02/23 23:24:51;;;;;;;;;;;9.20;99.90;;;;;;6122942;23;19916;-86
2023/02/23 23:27:18;;;;;;;;;;;9.20;99.90;;;;;;6251059;22;19905;-85
2023/02/23 23:29:45;;;;;;;;;;;9.10;99.90;;;;;;6122503;23;19958;-85
2023/02/23 23:32:15;;;;;;;;;;;9.10;99.90;;;;;;6223629;23;20355;-86
2023/02/23 23:34:46;;;;;;;;;;;9.10;99.90;;;;;;6224285;23;19912;-85
2023/02/23 23:37:12;;;;;;;;;;;9.10;99.90;;;;;;6122695;23;19940;-85
2023/02/23 23:39:38;;;;;;;;;;;9.20;99.90;;;;;;6124155;23;19905;-86
2023/02/23 23:42:04;;;;;;;;;;;9.10;99.90;;;;;;6224660;23;19912;-85
2023/02/23 23:44:32;;;;;;;;;;;9.10;99.90;;;;;;6225371;23;20321;-85
2023/02/23 23:46:58;;;;;;;;;;;9.10;99.90;;;;;;6249542;22;19928;-85
2023/02/23 23:49:24;;;;;;;;;;;9.20;99.90;;;;;;6225701;23;19909;-85
2023/02/23 23:51:50;;;;;;;;;;;9.10;99.90;;;;;;6223623;23;19912;-85
2023/02/23 23:54:20;;;;;;;;;;;9.10;99.90;;;;;;6123473;23;19955;-85
2023/02/23 23:56:45;;;;;;;;;;;9.10;99.90;;;;;;6225601;23;20244;-85
2023/02/23 23:59:15;;;;;;;;;;;9.10;99.90;;;;;;6225254;23;19932;-85
